sensor_id;sensor_type;location;lat;lon;timestamp;pressure;altitude;pressure_sealevel;temperature;humidity
5595;BME280;1003;48.002;7.788;2023-07-20T00:01:52;98967.00;;;20.81;100.00
5595;BME280;1003;48.002;7.788;2023-07-20T00:04:19;98969.63;;;20.80;100.00
5595;BME280;1003;48.002;7.788;2023-07-20T00:06:46;98961.31;;;20.76;100.00
5595;BME280;1003;48.002;7.788;2023-07-20T00:09:13;98962.97;;;20.77;100.00
5595;BME280;1003;48.002;7.788;2023-07-20T00:11:49;98960.84;;;20.69;100.00
5595;BME280;1003;48.002;7.788;2023-07-20T00:14:17;98966.44;;;20.60;100.00
5595;BME280;1003;48.002;7.788;2023-07-20T00:16:45;98970.09;;;20.56;100.00
5595;BME280;1003;48.002;7.788;2023-07-20T00:19:15;98970.00;;;20.58;100.00
5595;BME280;1003;48.002;7.788;2023-07-20T00:21:42;98967.69;;;20.53;100.00
5595;BME280;1003;48.002;7.788;2023-07-20T00:24:09;98958.22;;;20.39;100.00
5595;BME280;1003;48.002;7.788;2023-07-20T00:26:36;98958.44;;;20.35;100.00
5595;BME280;1003;48.002;7.788;2023-07-20T00:29:03;98965.19;;;20.36;100.00
5595;BME280;1003;48.002;7.788;2023-07-20T00:31:31;98957.22;;;20.42;100.00
5595;BME280;1003;48.002;7.788;2023-07-20T00:34:00;98961.19;;;20.48;100.00
5595;BME280;1003;48.002;7.788;2023-07-20T00:36:27;98962.31;;;20.42;100.00
5595;BME280;1003;48.002;7.788;2023-07-20T00:38:54;98962.88;;;20.31;100.00
5595;BME280;1003;48.002;7.788;2023-07-20T00:41:22;98958.19;;;20.24;100.00
5595;BME280;1003;48.002;7.788;2023-07-20T00:43:50;98958.59;;;20.16;100.00
5595;BME280;1003;48.002;7.788;2023-07-20T00:46:17;98951.19;;;20.11;100.00
5595;BME280;1003;48.002;7.788;2023-07-20T00:48:46;98943.59;;;20.10;100.00
5595;BME280;1003;48.002;7.788;2023-07-20T00:51:13;98940.06;;;20.12;100.00
5595;BME280;1003;48.002;7.788;2023-07-20T00:53:40;98933.06;;;20.16;100.00
5595;BME280;1003;48.002;7.788;2023-07-20T00:56:08;98940.63;;;20.17;100.00
5595;BME280;1003;48.002;7.788;2023-07-20T00:58:35;98933.91;;;20.16;100.00
5595;BME280;1003;48.002;7.788;2023-07-20T01:01:02;98937.44;;;20.14;100.00
5595;BME280;1003;48.002;7.788;2023-07-20T01:03:30;98935.53;;;20.17;100.00
5595;BME280;1003;48.002;7.788;2023-07-20T01:06:10;98936.44;;;20.16;100.00
5595;BME280;1003;48.002;7.788;2023-07-20T01:08:49;98927.63;;;20.06;100.00
5595;BME280;1003;48.002;7.788;2023-07-20T01:11:28;98927.56;;;20.08;100.00
5595;BME280;1003;48.002;7.788;2023-07-20T01:14:00;98936.88;;;20.09;100.00
5595;BME280;1003;48.002;7.788;2023-07-20T01:16:27;98939.19;;;20.13;100.00
5595;BME280;1003;48.002;7.788;2023-07-20T01:18:55;98937.34;;;20.15;100.00
5595;BME280;1003;48.002;7.788;2023-07-20T01:21:31;98930.44;;;20.17;100.00
5595;BME280;1003;48.002;7.788;2023-07-20T01:28:20;98923.84;;;19.98;100.00
5595;BME280;1003;48.002;7.788;2023-07-20T01:30:59;98930.59;;;19.99;100.00
5595;BME280;1003;48.002;7.788;2023-07-20T01:33:33;98922.72;;;20.03;100.00
5595;BME280;1003;48.002;7.788;2023-07-20T01:36:01;98926.91;;;20.04;100.00
5595;BME280;1003;48.002;7.788;2023-07-20T01:38:30;98924.34;;;20.04;100.00
5595;BME280;1003;48.002;7.788;2023-07-20T01:40:58;98920.97;;;20.04;100.00
5595;BME280;1003;48.002;7.788;2023-07-20T01:43:25;98918.56;;;20.01;100.00
5595;BME280;1003;48.002;7.788;2023-07-20T01:45:52;98910.28;;;19.97;100.00
5595;BME280;1003;48.002;7.788;2023-07-20T01:48:19;98917.16;;;19.79;100.00
5595;BME280;1003;48.002;7.788;2023-07-20T01:50:48;98913.78;;;19.79;100.00
5595;BME280;1003;48.002;7.788;2023-07-20T01:53:15;98913.13;;;19.75;100.00
5595;BME280;1003;48.002;7.788;2023-07-20T01:55:42;98897.84;;;19.75;100.00
5595;BME280;1003;48.002;7.788;2023-07-20T01:58:09;98898.72;;;19.74;100.00
5595;BME280;1003;48.002;7.788;2023-07-20T02:00:37;98893.88;;;19.70;100.00
5595;BME280;1003;48.002;7.788;2023-07-20T02:03:04;98888.91;;;19.66;100.00
5595;BME280;1003;48.002;7.788;2023-07-20T02:05:32;98887.09;;;19.69;100.00
5595;BME280;1003;48.002;7.788;2023-07-20T02:08:00;98885.78;;;19.61;100.00
5595;BME280;1003;48.002;7.788;2023-07-20T02:10:27;98877.53;;;19.56;100.00
5595;BME280;1003;48.002;7.788;2023-07-20T02:12:54;98860.59;;;19.55;100.00
5595;BME280;1003;48.002;7.788;2023-07-20T02:15:22;98854.97;;;19.49;100.00
5595;BME280;1003;48.002;7.788;2023-07-20T02:17:49;98845.97;;;19.41;100.00
5595;BME280;1003;48.002;7.788;2023-07-20T02:20:16;98836.34;;;19.31;100.00
5595;BME280;1003;48.002;7.788;2023-07-20T02:22:43;98820.78;;;19.20;100.00
5595;BME280;1003;48.002;7.788;2023-07-20T02:25:12;98806.94;;;19.08;100.00
5595;BME280;1003;48.002;7.788;2023-07-20T02:27:39;98815.31;;;18.94;100.00
5595;BME280;1003;48.002;7.788;2023-07-20T02:30:08;98804.13;;;18.97;100.00
5595;BME280;1003;48.002;7.788;2023-07-20T02:32:36;98800.06;;;18.93;100.00
5595;BME280;1003;48.002;7.788;2023-07-20T02:35:04;98811.16;;;18.92;100.00
5595;BME280;1003;48.002;7.788;2023-07-20T02:37:32;98811.16;;;18.92;100.00
5595;BME280;1003;48.002;7.788;2023-07-20T02:39:59;98813.03;;;18.88;100.00
5595;BME280;1003;48.002;7.788;2023-07-20T02:42:28;98810.56;;;18.86;100.00
5595;BME280;1003;48.002;7.788;2023-07-20T02:44:55;98802.25;;;18.83;100.00
5595;BME280;1003;48.002;7.788;2023-07-20T02:47:22;98810.06;;;18.80;100.00
5595;BME280;1003;48.002;7.788;2023-07-20T02:49:49;98804.97;;;18.80;100.00
5595;BME280;1003;48.002;7.788;2023-07-20T02:52:16;98797.56;;;18.75;100.00
5595;BME280;1003;48.002;7.788;2023-07-20T02:54:43;98794.31;;;18.72;100.00
5595;BME280;1003;48.002;7.788;2023-07-20T02:57:11;98803.06;;;18.66;100.00
5595;BME280;1003;48.002;7.788;2023-07-20T02:59:39;98800.00;;;18.59;100.00
5595;BME280;1003;48.002;7.788;2023-07-20T03:02:06;98805.22;;;18.56;100.00
5595;BME280;1003;48.002;7.788;2023-07-20T03:04:35;98799.31;;;18.56;100.00
5595;BME280;1003;48.002;7.788;2023-07-20T03:07:04;98794.22;;;18.56;100.00
5595;BME280;1003;48.002;7.788;2023-07-20T03:09:31;98790.34;;;18.49;100.00
5595;BME280;1003;48.002;7.788;2023-07-20T03:11:58;98785.34;;;18.47;100.00
5595;BME280;1003;48.002;7.788;2023-07-20T03:14:25;98782.94;;;18.44;100.00
5595;BME280;1003;48.002;7.788;2023-07-20T03:16:53;98778.97;;;18.39;100.00
5595;BME280;1003;48.002;7.788;2023-07-20T03:19:20;98784.13;;;18.37;100.00
5595;BME280;1003;48.002;7.788;2023-07-20T03:21:47;98789.06;;;18.40;100.00
5595;BME280;1003;48.002;7.788;2023-07-20T03:24:15;98798.38;;;18.41;100.00
5595;BME280;1003;48.002;7.788;2023-07-20T03:26:42;98805.63;;;18.49;100.00
5595;BME280;1003;48.002;7.788;2023-07-20T03:29:09;98813.16;;;18.50;100.00
5595;BME280;1003;48.002;7.788;2023-07-20T03:31:36;98819.06;;;18.51;100.00
5595;BME280;1003;48.002;7.788;2023-07-20T03:34:05;98814.06;;;18.49;100.00
5595;BME280;1003;48.002;7.788;2023-07-20T03:36:34;98813.34;;;18.47;100.00
5595;BME280;1003;48.002;7.788;2023-07-20T03:39:01;98814.44;;;18.42;100.00
5595;BME280;1003;48.002;7.788;2023-07-20T03:41:28;98815.69;;;18.33;100.00
5595;BME280;1003;48.002;7.788;2023-07-20T03:43:55;98821.69;;;18.32;100.00
5595;BME280;1003;48.002;7.788;2023-07-20T03:46:23;98815.25;;;18.25;100.00
5595;BME280;1003;48.002;7.788;2023-07-20T03:48:50;98818.66;;;18.24;100.00
5595;BME280;1003;48.002;7.788;2023-07-20T03:51:18;98822.28;;;18.20;100.00
5595;BME280;1003;48.002;7.788;2023-07-20T03:53:45;98823.38;;;18.14;100.00
5595;BME280;1003;48.002;7.788;2023-07-20T03:56:12;98808.06;;;18.16;100.00
5595;BME280;1003;48.002;7.788;2023-07-20T03:58:39;98805.59;;;18.14;100.00
5595;BME280;1003;48.002;7.788;2023-07-20T04:01:06;98808.19;;;18.13;100.00
5595;BME280;1003;48.002;7.788;2023-07-20T04:03:33;98799.94;;;18.07;100.00
5595;BME280;1003;48.002;7.788;2023-07-20T04:06:01;98771.03;;;17.91;100.00
5595;BME280;1003;48.002;7.788;2023-07-20T04:08:30;98758.19;;;17.94;100.00
5595;BME280;1003;48.002;7.788;2023-07-20T04:10:57;98751.75;;;17.87;100.00
5595;BME280;1003;48.002;7.788;2023-07-20T04:13:24;98740.06;;;17.83;100.00
5595;BME280;1003;48.002;7.788;2023-07-20T04:15:51;98726.47;;;17.65;100.00
5595;BME280;1003;48.002;7.788;2023-07-20T04:18:18;98721.59;;;17.61;100.00
5595;BME280;1003;48.002;7.788;2023-07-20T04:20:45;98703.81;;;17.61;100.00
5595;BME280;1003;48.002;7.788;2023-07-20T04:23:12;98703.94;;;17.57;100.00
5595;BME280;1003;48.002;7.788;2023-07-20T04:25:42;98688.56;;;17.61;100.00
5595;BME280;1003;48.002;7.788;2023-07-20T04:28:09;98678.03;;;17.68;100.00
5595;BME280;1003;48.002;7.788;2023-07-20T04:30:36;98673.63;;;17.72;100.00
5595;BME280;1003;48.002;7.788;2023-07-20T04:33:04;98669.03;;;17.80;100.00
5595;BME280;1003;48.002;7.788;2023-07-20T04:35:48;98663.47;;;17.72;100.00
5595;BME280;1003;48.002;7.788;2023-07-20T04:38:16;98651.78;;;17.68;100.00
5595;BME280;1003;48.002;7.788;2023-07-20T04:40:47;98636.63;;;17.66;100.00
5595;BME280;1003;48.002;7.788;2023-07-20T04:43:15;98621.97;;;17.71;100.00
5595;BME280;1003;48.002;7.788;2023-07-20T04:45:42;98616.28;;;17.66;100.00
5595;BME280;1003;48.002;7.788;2023-07-20T04:48:10;98618.75;;;17.68;100.00
5595;BME280;1003;48.002;7.788;2023-07-20T04:50:39;98611.13;;;17.68;100.00
5595;BME280;1003;48.002;7.788;2023-07-20T04:53:06;98612.38;;;17.78;100.00
5595;BME280;1003;48.002;7.788;2023-07-20T04:55:34;98610.25;;;17.86;100.00
5595;BME280;1003;48.002;7.788;2023-07-20T04:58:04;98610.19;;;17.88;100.00
5595;BME280;1003;48.002;7.788;2023-07-20T05:00:33;98603.00;;;17.96;100.00
5595;BME280;1003;48.002;7.788;2023-07-20T05:03:00;98599.94;;;18.06;100.00
5595;BME280;1003;48.002;7.788;2023-07-20T05:05:27;98601.66;;;18.06;100.00
5595;BME280;1003;48.002;7.788;2023-07-20T05:07:54;98606.16;;;18.01;100.00
5595;BME280;1003;48.002;7.788;2023-07-20T05:10:23;98608.09;;;17.96;100.00
5595;BME280;1003;48.002;7.788;2023-07-20T05:12:50;98615.41;;;18.02;100.00
5595;BME280;1003;48.002;7.788;2023-07-20T05:15:18;98608.97;;;18.12;100.00
5595;BME280;1003;48.002;7.788;2023-07-20T05:17:45;98605.88;;;18.23;100.00
5595;BME280;1003;48.002;7.788;2023-07-20T05:20:14;98604.84;;;18.27;100.00
5595;BME280;1003;48.002;7.788;2023-07-20T05:22:42;98623.41;;;18.62;100.00
5595;BME280;1003;48.002;7.788;2023-07-20T05:25:11;98631.59;;;18.84;100.00
5595;BME280;1003;48.002;7.788;2023-07-20T05:27:39;98649.75;;;18.94;100.00
5595;BME280;1003;48.002;7.788;2023-07-20T05:30:07;98662.00;;;19.03;100.00
5595;BME280;1003;48.002;7.788;2023-07-20T05:32:36;98674.78;;;18.86;100.00
5595;BME280;1003;48.002;7.788;2023-07-20T05:35:04;98668.69;;;18.55;100.00
5595;BME280;1003;48.002;7.788;2023-07-20T05:37:31;98671.81;;;18.60;100.00
5595;BME280;1003;48.002;7.788;2023-07-20T05:39:58;98665.19;;;18.91;100.00
5595;BME280;1003;48.002;7.788;2023-07-20T05:42:25;98667.59;;;18.94;100.00
5595;BME280;1003;48.002;7.788;2023-07-20T05:44:52;98653.03;;;18.96;100.00
5595;BME280;1003;48.002;7.788;2023-07-20T05:47:21;98649.50;;;19.14;100.00
5595;BME280;1003;48.002;7.788;2023-07-20T05:49:49;98647.72;;;19.17;100.00
5595;BME280;1003;48.002;7.788;2023-07-20T05:52:16;98642.44;;;19.20;100.00
5595;BME280;1003;48.002;7.788;2023-07-20T05:54:43;98639.25;;;19.32;100.00
5595;BME280;1003;48.002;7.788;2023-07-20T05:57:10;98622.69;;;19.55;100.00
5595;BME280;1003;48.002;7.788;2023-07-20T05:59:37;98630.94;;;19.74;100.00
5595;BME280;1003;48.002;7.788;2023-07-20T06:02:06;98635.53;;;19.83;100.00
5595;BME280;1003;48.002;7.788;2023-07-20T06:04:33;98636.00;;;19.90;100.00
5595;BME280;1003;48.002;7.788;2023-07-20T06:07:02;98653.50;;;19.96;100.00
5595;BME280;1003;48.002;7.788;2023-07-20T06:09:30;98662.91;;;19.96;100.00
5595;BME280;1003;48.002;7.788;2023-07-20T06:11:57;98686.50;;;19.99;100.00
5595;BME280;1003;48.002;7.788;2023-07-20T06:14:24;98706.47;;;20.07;100.00
5595;BME280;1003;48.002;7.788;2023-07-20T06:16:51;98734.53;;;20.07;100.00
5595;BME280;1003;48.002;7.788;2023-07-20T06:19:18;98757.44;;;20.38;100.00
5595;BME280;1003;48.002;7.788;2023-07-20T06:21:45;98795.13;;;20.49;100.00
5595;BME280;1003;48.002;7.788;2023-07-20T06:24:13;98807.16;;;20.77;100.00
5595;BME280;1003;48.002;7.788;2023-07-20T06:26:40;98828.69;;;20.87;100.00
5595;BME280;1003;48.002;7.788;2023-07-20T06:29:08;98847.06;;;21.08;100.00
5595;BME280;1003;48.002;7.788;2023-07-20T06:31:36;98861.88;;;21.17;100.00
5595;BME280;1003;48.002;7.788;2023-07-20T06:34:03;98874.03;;;21.28;100.00
5595;BME280;1003;48.002;7.788;2023-07-20T06:36:30;98881.44;;;21.61;100.00
5595;BME280;1003;48.002;7.788;2023-07-20T06:38:57;98891.31;;;21.67;100.00
5595;BME280;1003;48.002;7.788;2023-07-20T06:41:26;98899.84;;;21.95;100.00
5595;BME280;1003;48.002;7.788;2023-07-20T06:43:54;98917.59;;;21.98;100.00
5595;BME280;1003;48.002;7.788;2023-07-20T06:46:24;98901.66;;;22.21;100.00
5595;BME280;1003;48.002;7.788;2023-07-20T06:48:52;98917.72;;;22.38;100.00
5595;BME280;1003;48.002;7.788;2023-07-20T06:51:19;98927.78;;;22.68;100.00
5595;BME280;1003;48.002;7.788;2023-07-20T06:53:46;98929.50;;;22.94;100.00
5595;BME280;1003;48.002;7.788;2023-07-20T06:56:13;98940.41;;;23.11;100.00
5595;BME280;1003;48.002;7.788;2023-07-20T06:58:42;98948.59;;;23.03;100.00
5595;BME280;1003;48.002;7.788;2023-07-20T07:01:09;98952.38;;;22.70;100.00
5595;BME280;1003;48.002;7.788;2023-07-20T07:03:36;98949.28;;;22.92;100.00
5595;BME280;1003;48.002;7.788;2023-07-20T07:06:03;98951.78;;;23.07;100.00
5595;BME280;1003;48.002;7.788;2023-07-20T07:08:30;98945.72;;;22.80;100.00
5595;BME280;1003;48.002;7.788;2023-07-20T07:10:58;98947.19;;;22.85;100.00
5595;BME280;1003;48.002;7.788;2023-07-20T07:13:26;98946.25;;;22.86;100.00
5595;BME280;1003;48.002;7.788;2023-07-20T07:15:54;98950.25;;;23.04;100.00
5595;BME280;1003;48.002;7.788;2023-07-20T07:18:23;98952.88;;;23.02;100.00
5595;BME280;1003;48.002;7.788;2023-07-20T07:20:51;98965.41;;;22.80;100.00
5595;BME280;1003;48.002;7.788;2023-07-20T07:23:19;98959.88;;;23.00;100.00
5595;BME280;1003;48.002;7.788;2023-07-20T07:25:47;98971.97;;;23.76;100.00
5595;BME280;1003;48.002;7.788;2023-07-20T07:28:15;98972.97;;;24.49;100.00
5595;BME280;1003;48.002;7.788;2023-07-20T07:30:42;98981.31;;;25.11;100.00
5595;BME280;1003;48.002;7.788;2023-07-20T07:33:10;98985.69;;;25.22;100.00
5595;BME280;1003;48.002;7.788;2023-07-20T07:35:38;98984.72;;;25.23;100.00
5595;BME280;1003;48.002;7.788;2023-07-20T07:38:05;98987.69;;;25.30;100.00
5595;BME280;1003;48.002;7.788;2023-07-20T07:40:32;98996.09;;;24.73;100.00
5595;BME280;1003;48.002;7.788;2023-07-20T07:43:00;98996.47;;;24.55;100.00
5595;BME280;1003;48.002;7.788;2023-07-20T07:45:27;98993.31;;;24.76;100.00
5595;BME280;1003;48.002;7.788;2023-07-20T07:47:54;98990.00;;;25.90;100.00
5595;BME280;1003;48.002;7.788;2023-07-20T07:50:22;98982.50;;;26.76;100.00
5595;BME280;1003;48.002;7.788;2023-07-20T07:52:49;98987.88;;;26.29;96.49
5595;BME280;1003;48.002;7.788;2023-07-20T10:19:46;98902.94;;;25.51;96.96
5595;BME280;1003;48.002;7.788;2023-07-20T10:22:19;98895.66;;;25.56;94.65
5595;BME280;1003;48.002;7.788;2023-07-20T10:24:47;98895.19;;;25.62;92.73
5595;BME280;1003;48.002;7.788;2023-07-20T10:27:14;98889.25;;;25.61;93.71
5595;BME280;1003;48.002;7.788;2023-07-20T10:29:42;98897.53;;;25.43;97.59
5595;BME280;1003;48.002;7.788;2023-07-20T10:32:10;98887.22;;;25.31;96.86
5595;BME280;1003;48.002;7.788;2023-07-20T10:34:39;98891.41;;;25.10;98.21
5595;BME280;1003;48.002;7.788;2023-07-20T10:37:06;98891.28;;;25.11;96.99
5595;BME280;1003;48.002;7.788;2023-07-20T10:39:33;98885.13;;;25.14;97.72
5595;BME280;1003;48.002;7.788;2023-07-20T10:42:02;98881.41;;;25.52;97.83
5595;BME280;1003;48.002;7.788;2023-07-20T10:44:30;98884.19;;;25.71;96.13
5595;BME280;1003;48.002;7.788;2023-07-20T10:47:02;98883.28;;;25.83;96.66
5595;BME280;1003;48.002;7.788;2023-07-20T10:49:33;98880.56;;;25.85;97.02
5595;BME280;1003;48.002;7.788;2023-07-20T10:52:05;98876.56;;;26.35;98.38
5595;BME280;1003;48.002;7.788;2023-07-20T10:54:35;98876.38;;;27.01;94.80
5595;BME280;1003;48.002;7.788;2023-07-20T10:57:25;98880.44;;;27.15;89.62
5595;BME280;1003;48.002;7.788;2023-07-20T11:00:11;98882.41;;;27.63;92.71
5595;BME280;1003;48.002;7.788;2023-07-20T11:02:48;98872.38;;;27.69;88.95
5595;BME280;1003;48.002;7.788;2023-07-20T11:05:36;98869.59;;;28.02;87.46
5595;BME280;1003;48.002;7.788;2023-07-20T11:08:10;98871.13;;;28.04;84.68
5595;BME280;1003;48.002;7.788;2023-07-20T11:10:38;98864.25;;;27.74;83.46
5595;BME280;1003;48.002;7.788;2023-07-20T11:13:21;98860.56;;;27.36;82.57
5595;BME280;1003;48.002;7.788;2023-07-20T11:16:03;98860.81;;;27.33;85.85
5595;BME280;1003;48.002;7.788;2023-07-20T11:18:34;98850.47;;;27.03;86.71
5595;BME280;1003;48.002;7.788;2023-07-20T11:21:10;98849.75;;;27.21;86.31
5595;BME280;1003;48.002;7.788;2023-07-20T11:23:40;98848.53;;;27.16;86.33
5595;BME280;1003;48.002;7.788;2023-07-20T11:26:07;98845.69;;;26.98;83.68
5595;BME280;1003;48.002;7.788;2023-07-20T11:28:34;98847.34;;;26.78;87.49
5595;BME280;1003;48.002;7.788;2023-07-20T11:31:02;98841.94;;;26.28;88.30
5595;BME280;1003;48.002;7.788;2023-07-20T11:33:29;98837.91;;;26.03;87.23
5595;BME280;1003;48.002;7.788;2023-07-20T11:35:56;98830.06;;;26.37;92.23
5595;BME280;1003;48.002;7.788;2023-07-20T11:38:24;98833.50;;;26.58;88.43
5595;BME280;1003;48.002;7.788;2023-07-20T11:40:53;98825.97;;;26.34;87.15
5595;BME280;1003;48.002;7.788;2023-07-20T11:43:20;98832.69;;;26.26;90.07
5595;BME280;1003;48.002;7.788;2023-07-20T11:45:50;98825.00;;;26.47;91.90
5595;BME280;1003;48.002;7.788;2023-07-20T11:48:17;98816.31;;;26.68;91.13
5595;BME280;1003;48.002;7.788;2023-07-20T11:50:44;98816.38;;;26.99;88.50
5595;BME280;1003;48.002;7.788;2023-07-20T11:53:14;98817.03;;;26.91;83.01
5595;BME280;1003;48.002;7.788;2023-07-20T11:55:42;98819.75;;;27.00;83.27
5595;BME280;1003;48.002;7.788;2023-07-20T11:58:10;98824.19;;;26.67;83.28
5595;BME280;1003;48.002;7.788;2023-07-20T12:00:39;98812.91;;;26.26;83.08
5595;BME280;1003;48.002;7.788;2023-07-20T12:03:07;98802.66;;;26.04;84.64
5595;BME280;1003;48.002;7.788;2023-07-20T12:05:34;98805.94;;;26.38;88.30
5595;BME280;1003;48.002;7.788;2023-07-20T12:08:01;98807.25;;;26.32;83.93
5595;BME280;1003;48.002;7.788;2023-07-20T12:10:28;98799.38;;;26.45;83.98
5595;BME280;1003;48.002;7.788;2023-07-20T12:13:02;98802.38;;;26.50;87.09
5595;BME280;1003;48.002;7.788;2023-07-20T12:15:31;98804.81;;;26.52;85.04
5595;BME280;1003;48.002;7.788;2023-07-20T12:18:00;98792.06;;;26.50;85.29
5595;BME280;1003;48.002;7.788;2023-07-20T12:20:29;98790.56;;;26.48;85.54
5595;BME280;1003;48.002;7.788;2023-07-20T12:22:59;98796.03;;;26.54;85.60
5595;BME280;1003;48.002;7.788;2023-07-20T12:25:36;98787.72;;;26.72;83.67
5595;BME280;1003;48.002;7.788;2023-07-20T12:28:06;98781.13;;;26.58;83.52
5595;BME280;1003;48.002;7.788;2023-07-20T12:30:34;98785.53;;;26.46;85.71
5595;BME280;1003;48.002;7.788;2023-07-20T12:33:03;98780.38;;;26.67;87.97
5595;BME280;1003;48.002;7.788;2023-07-20T12:35:30;98777.72;;;26.57;83.69
5595;BME280;1003;48.002;7.788;2023-07-20T12:37:57;98773.00;;;26.62;78.70
5595;BME280;1003;48.002;7.788;2023-07-20T12:40:25;98773.75;;;26.32;75.87
5595;BME280;1003;48.002;7.788;2023-07-20T12:42:52;98772.09;;;26.10;75.65
5595;BME280;1003;48.002;7.788;2023-07-20T12:45:19;98760.13;;;26.41;77.30
5595;BME280;1003;48.002;7.788;2023-07-20T12:47:48;98761.03;;;26.40;75.74
5595;BME280;1003;48.002;7.788;2023-07-20T12:50:15;98754.44;;;26.68;79.55
5595;BME280;1003;48.002;7.788;2023-07-20T12:52:42;98754.81;;;27.15;81.27
5595;BME280;1003;48.002;7.788;2023-07-20T12:55:10;98759.41;;;27.12;80.75
5595;BME280;1003;48.002;7.788;2023-07-20T12:57:38;98751.84;;;26.89;82.49
5595;BME280;1003;48.002;7.788;2023-07-20T13:00:08;98745.31;;;27.16;84.99
5595;BME280;1003;48.002;7.788;2023-07-20T13:02:37;98745.78;;;27.40;85.49
5595;BME280;1003;48.002;7.788;2023-07-20T13:05:06;98742.13;;;27.43;87.04
5595;BME280;1003;48.002;7.788;2023-07-20T13:07:35;98739.25;;;26.96;84.19
5595;BME280;1003;48.002;7.788;2023-07-20T13:10:04;98739.34;;;26.54;85.63
5595;BME280;1003;48.002;7.788;2023-07-20T13:12:33;98737.63;;;26.43;89.65
5595;BME280;1003;48.002;7.788;2023-07-20T13:15:02;98724.75;;;26.43;93.36
5595;BME280;1003;48.002;7.788;2023-07-20T13:17:31;98735.44;;;26.60;95.98
5595;BME280;1003;48.002;7.788;2023-07-20T13:19:58;98730.66;;;26.86;90.96
5595;BME280;1003;48.002;7.788;2023-07-20T13:22:27;98732.34;;;27.06;89.02
5595;BME280;1003;48.002;7.788;2023-07-20T13:24:54;98734.56;;;27.11;88.87
5595;BME280;1003;48.002;7.788;2023-07-20T13:27:21;98731.25;;;27.49;89.84
5595;BME280;1003;48.002;7.788;2023-07-20T13:29:48;98732.28;;;27.27;77.82
5595;BME280;1003;48.002;7.788;2023-07-20T13:32:16;98731.38;;;27.38;75.29
5595;BME280;1003;48.002;7.788;2023-07-20T13:34:44;98731.72;;;27.14;72.62
5595;BME280;1003;48.002;7.788;2023-07-20T13:37:12;98725.66;;;26.94;74.25
5595;BME280;1003;48.002;7.788;2023-07-20T13:39:40;98723.50;;;26.99;77.57
5595;BME280;1003;48.002;7.788;2023-07-20T13:42:08;98719.09;;;27.11;75.60
5595;BME280;1003;48.002;7.788;2023-07-20T13:44:36;98718.09;;;27.02;78.46
5595;BME280;1003;48.002;7.788;2023-07-20T13:47:05;98717.72;;;27.07;79.69
5595;BME280;1003;48.002;7.788;2023-07-20T13:49:32;98715.72;;;27.20;79.23
5595;BME280;1003;48.002;7.788;2023-07-20T13:51:59;98714.63;;;27.23;78.01
5595;BME280;1003;48.002;7.788;2023-07-20T13:54:26;98710.72;;;27.38;78.42
5595;BME280;1003;48.002;7.788;2023-07-20T13:56:55;98703.81;;;27.29;79.65
5595;BME280;1003;48.002;7.788;2023-07-20T13:59:22;98700.50;;;27.17;78.46
5595;BME280;1003;48.002;7.788;2023-07-20T14:01:49;98701.19;;;26.88;79.08
5595;BME280;1003;48.002;7.788;2023-07-20T14:04:17;98702.28;;;26.34;81.33
5595;BME280;1003;48.002;7.788;2023-07-20T14:06:44;98698.75;;;26.35;81.52
5595;BME280;1003;48.002;7.788;2023-07-20T14:09:13;98698.09;;;26.54;82.05
5595;BME280;1003;48.002;7.788;2023-07-20T14:11:40;98694.41;;;26.57;79.28
5595;BME280;1003;48.002;7.788;2023-07-20T14:14:08;98703.03;;;26.67;78.90
5595;BME280;1003;48.002;7.788;2023-07-20T14:16:35;98699.81;;;26.75;79.17
5595;BME280;1003;48.002;7.788;2023-07-20T14:19:03;98690.97;;;27.08;80.67
5595;BME280;1003;48.002;7.788;2023-07-20T14:21:31;98689.25;;;27.18;78.30
5595;BME280;1003;48.002;7.788;2023-07-20T14:23:59;98686.25;;;27.23;78.49
5595;BME280;1003;48.002;7.788;2023-07-20T14:26:26;98685.56;;;27.20;77.93
5595;BME280;1003;48.002;7.788;2023-07-20T14:28:53;98683.78;;;27.11;78.16
5595;BME280;1003;48.002;7.788;2023-07-20T14:31:21;98686.50;;;27.10;79.50
5595;BME280;1003;48.002;7.788;2023-07-20T14:33:48;98675.41;;;27.38;84.43
5595;BME280;1003;48.002;7.788;2023-07-20T14:36:16;98672.00;;;27.47;82.59
5595;BME280;1003;48.002;7.788;2023-07-20T14:38:43;98668.06;;;27.43;77.79
5595;BME280;1003;48.002;7.788;2023-07-20T14:41:10;98661.16;;;27.54;79.27
5595;BME280;1003;48.002;7.788;2023-07-20T14:43:37;98660.88;;;27.37;81.61
5595;BME280;1003;48.002;7.788;2023-07-20T14:46:05;98660.06;;;27.46;81.04
5595;BME280;1003;48.002;7.788;2023-07-20T14:48:33;98655.03;;;27.55;78.08
5595;BME280;1003;48.002;7.788;2023-07-20T14:51:00;98660.59;;;27.60;76.90
5595;BME280;1003;48.002;7.788;2023-07-20T14:53:28;98654.88;;;27.27;75.43
5595;BME280;1003;48.002;7.788;2023-07-20T14:55:59;98659.91;;;27.48;77.56
5595;BME280;1003;48.002;7.788;2023-07-20T14:58:26;98657.91;;;27.52;75.45
5595;BME280;1003;48.002;7.788;2023-07-20T15:00:53;98648.50;;;27.41;75.97
5595;BME280;1003;48.002;7.788;2023-07-20T15:03:21;98646.72;;;27.32;75.46
5595;BME280;1003;48.002;7.788;2023-07-20T15:05:49;98648.66;;;27.30;76.07
5595;BME280;1003;48.002;7.788;2023-07-20T15:08:17;98647.72;;;26.90;74.03
5595;BME280;1003;48.002;7.788;2023-07-20T15:10:44;98645.25;;;26.79;77.05
5595;BME280;1003;48.002;7.788;2023-07-20T15:13:11;98644.91;;;26.53;78.56
5595;BME280;1003;48.002;7.788;2023-07-20T15:15:38;98647.59;;;26.31;79.35
5595;BME280;1003;48.002;7.788;2023-07-20T15:18:05;98638.91;;;26.53;79.90
5595;BME280;1003;48.002;7.788;2023-07-20T15:20:32;98635.25;;;26.86;82.40
5595;BME280;1003;48.002;7.788;2023-07-20T15:23:01;98635.53;;;26.92;77.96
5595;BME280;1003;48.002;7.788;2023-07-20T15:25:28;98628.28;;;26.77;74.87
5595;BME280;1003;48.002;7.788;2023-07-20T15:27:55;98632.84;;;26.63;76.87
5595;BME280;1003;48.002;7.788;2023-07-20T15:30:22;98636.56;;;26.71;76.11
5595;BME280;1003;48.002;7.788;2023-07-20T15:32:49;98631.94;;;26.74;74.33
5595;BME280;1003;48.002;7.788;2023-07-20T15:35:16;98624.00;;;26.56;74.70
5595;BME280;1003;48.002;7.788;2023-07-20T15:37:43;98622.72;;;26.72;77.31
5595;BME280;1003;48.002;7.788;2023-07-20T15:40:12;98618.13;;;26.94;79.19
5595;BME280;1003;48.002;7.788;2023-07-20T15:42:40;98615.56;;;27.04;75.40
5595;BME280;1003;48.002;7.788;2023-07-20T15:45:09;98618.13;;;26.85;73.05
5595;BME280;1003;48.002;7.788;2023-07-20T15:47:36;98606.59;;;26.89;75.03
5595;BME280;1003;48.002;7.788;2023-07-20T15:50:03;98608.09;;;27.01;80.89